Time;durP1;ratioP1;P1;durP2;ratioP2;P2;SDS_P1;SDS_P2;PMS_P1;PMS_P2;Temp;Humidity;BMP_temperature;BMP_pressure;BME280_temperature;BME280_humidity;BME280_pressure;Samples;Min_cycle;Max_cycle;Signal;HPM_P1;HPM_P2
2022/07/23 00:01:36;;;;;;;20.47;15.60;;;;;;;;;;7653366;23;20103;-59
2022/07/23 00:04:37;;;;;;;22.53;16.27;;;;;;;;;;7658663;23;20025;-59
2022/07/23 00:07:38;;;;;;;22.00;16.33;;;;;;;;;;7654352;23;20087;-59
2022/07/23 00:10:38;;;;;;;25.10;16.75;;;;;;;;;;7652862;23;20053;-60
2022/07/23 00:13:39;;;;;;;25.87;17.30;;;;;;;;;;7654507;23;20013;-59
2022/07/23 00:16:40;;;;;;;23.90;16.73;;;;;;;;;;7655917;23;20021;-59
2022/07/23 00:19:40;;;;;;;38.40;29.43;;;;;;;;;;7654926;23;20381;-59
2022/07/23 00:22:47;;;;;;;27.33;19.03;;;;;;;;;;7651984;23;20032;-59
2022/07/23 00:25:48;;;;;;;23.63;18.08;;;;;;;;;;7654340;23;20027;-59
2022/07/23 00:28:49;;;;;;;32.17;24.00;;;;;;;;;;7656803;23;20727;-59
2022/07/23 00:31:49;;;;;;;23.87;16.53;;;;;;;;;;7654487;23;20394;-57
2022/07/23 00:34:50;;;;;;;22.00;15.80;;;;;;;;;;7604096;23;20020;-59
2022/07/23 00:37:50;;;;;;;24.03;17.00;;;;;;;;;;7655045;23;20079;-59
2022/07/23 00:40:51;;;;;;;24.80;17.37;;;;;;;;;;7654098;23;20318;-59
2022/07/23 00:43:51;;;;;;;24.90;18.10;;;;;;;;;;7656708;23;20096;-60
2022/07/23 00:46:58;;;;;;;193.27;159.03;;;;;;;;;;7653696;23;20436;-60
2022/07/23 00:49:59;;;;;;;48.13;35.38;;;;;;;;;;7654640;23;20033;-60
2022/07/23 00:52:59;;;;;;;23.13;16.23;;;;;;;;;;7652019;23;20547;-59
2022/07/23 00:56:00;;;;;;;23.80;16.87;;;;;;;;;;7655534;23;20024;-60
2022/07/23 00:59:01;;;;;;;24.30;16.90;;;;;;;;;;7655306;23;20469;-60
2022/07/23 01:02:02;;;;;;;21.55;16.45;;;;;;;;;;7653608;23;20525;-58
2022/07/23 01:05:02;;;;;;;25.03;16.60;;;;;;;;;;7655703;23;20021;-60
2022/07/23 01:08:05;;;;;;;22.40;15.85;;;;;;;;;;7656432;23;20099;-59
2022/07/23 01:11:06;;;;;;;24.90;16.80;;;;;;;;;;7653085;23;20120;-62
2022/07/23 01:14:17;;;;;;;29.07;19.23;;;;;;;;;;7657709;23;20036;-60
2022/07/23 01:17:17;;;;;;;25.93;17.97;;;;;;;;;;7655649;23;20021;-60
2022/07/23 01:20:18;;;;;;;25.60;18.40;;;;;;;;;;7628853;23;20251;-59
2022/07/23 01:23:20;;;;;;;26.77;17.83;;;;;;;;;;7651827;23;20025;-59
2022/07/23 01:26:21;;;;;;;29.48;18.45;;;;;;;;;;7654050;23;20023;-58
2022/07/23 01:29:22;;;;;;;28.97;19.83;;;;;;;;;;7653844;23;20453;-60
2022/07/23 01:32:22;;;;;;;31.63;22.55;;;;;;;;;;7628515;23;20091;-67
2022/07/23 01:35:23;;;;;;;35.80;23.27;;;;;;;;;;7661352;23;20112;-64
2022/07/23 01:38:23;;;;;;;27.03;19.10;;;;;;;;;;7659298;23;20108;-63
2022/07/23 01:41:24;;;;;;;29.33;19.80;;;;;;;;;;7672273;23;20306;-62
2022/07/23 01:44:25;;;;;;;24.43;18.07;;;;;;;;;;7663971;23;20023;-61
2022/07/23 01:47:26;;;;;;;26.80;17.90;;;;;;;;;;7667316;23;20013;-61
2022/07/23 01:50:26;;;;;;;28.98;20.95;;;;;;;;;;7667510;23;20520;-59
2022/07/23 01:53:27;;;;;;;25.23;18.07;;;;;;;;;;7666147;23;20017;-59
2022/07/23 01:56:27;;;;;;;25.43;17.67;;;;;;;;;;7665398;23;20017;-58
2022/07/23 01:59:28;;;;;;;27.27;18.80;;;;;;;;;;7668452;23;20017;-59
2022/07/23 02:02:29;;;;;;;28.53;19.43;;;;;;;;;;7666682;23;20044;-59
2022/07/23 02:05:31;;;;;;;29.40;21.27;;;;;;;;;;7668401;23;20336;-59
2022/07/23 02:08:32;;;;;;;30.77;19.65;;;;;;;;;;7669657;23;20095;-59
2022/07/23 02:11:32;;;;;;;29.27;18.63;;;;;;;;;;7668646;23;20025;-58
2022/07/23 02:14:33;;;;;;;28.07;18.77;;;;;;;;;;7671061;23;20017;-59
2022/07/23 02:17:34;;;;;;;29.87;18.90;;;;;;;;;;7667097;23;20779;-60
2022/07/23 02:20:34;;;;;;;28.47;18.53;;;;;;;;;;7667081;23;20480;-60
2022/07/23 02:23:35;;;;;;;28.13;18.57;;;;;;;;;;7669189;23;20017;-59
2022/07/23 02:26:37;;;;;;;29.13;18.77;;;;;;;;;;7668874;23;20021;-62
2022/07/23 02:29:37;;;;;;;;;;;;;;;;;;7668482;23;20025;-60
2022/07/23 02:32:39;;;;;;;30.25;18.67;;;;;;;;;;7665818;23;20007;-59
2022/07/23 02:35:39;;;;;;;26.70;18.40;;;;;;;;;;7666449;23;20524;-59
2022/07/23 02:38:40;;;;;;;25.60;17.97;;;;;;;;;;7667587;23;20052;-60
2022/07/23 02:41:41;;;;;;;26.43;18.00;;;;;;;;;;7667605;23;20039;-60
2022/07/23 02:44:41;;;;;;;25.83;18.57;;;;;;;;;;7668382;23;20028;-59
2022/07/23 02:47:42;;;;;;;23.47;17.07;;;;;;;;;;7667767;23;20013;-59
2022/07/23 02:50:42;;;;;;;24.63;17.33;;;;;;;;;;7666726;23;20096;-59
2022/07/23 02:53:43;;;;;;;25.33;17.30;;;;;;;;;;7668840;23;20625;-60
2022/07/23 02:56:43;;;;;;;25.03;17.27;;;;;;;;;;7665133;23;20029;-60
2022/07/23 02:59:44;;;;;;;24.00;17.23;;;;;;;;;;7668936;23;20063;-61
2022/07/23 03:02:45;;;;;;;25.37;17.10;;;;;;;;;;7668840;23;20020;-59
2022/07/23 03:05:45;;;;;;;26.43;17.43;;;;;;;;;;7667960;23;20017;-58
2022/07/23 03:08:46;;;;;;;32.77;19.27;;;;;;;;;;7668543;23;20029;-59
2022/07/23 03:11:46;;;;;;;24.07;17.37;;;;;;;;;;7668737;23;20090;-60
2022/07/23 03:14:47;;;;;;;29.03;19.30;;;;;;;;;;7668939;23;20036;-60
2022/07/23 03:17:47;;;;;;;24.87;17.57;;;;;;;;;;7668647;23;20017;-59
2022/07/23 03:20:48;;;;;;;26.17;17.73;;;;;;;;;;7667835;23;20064;-60
2022/07/23 03:23:48;;;;;;;26.60;17.00;;;;;;;;;;7670669;23;20027;-60
2022/07/23 03:26:49;;;;;;;25.87;16.83;;;;;;;;;;7668020;23;20054;-60
2022/07/23 03:29:51;;;;;;;26.93;18.23;;;;;;;;;;7681267;23;20031;-59
2022/07/23 03:32:52;;;;;;;25.25;16.40;;;;;;;;;;7670178;23;20640;-60
2022/07/23 03:35:53;;;;;;;27.20;18.57;;;;;;;;;;7668049;23;20020;-59
2022/07/23 03:38:53;;;;;;;27.53;17.23;;;;;;;;;;7665164;23;20898;-59
2022/07/23 03:41:54;;;;;;;25.57;17.37;;;;;;;;;;7667431;23;20797;-59
2022/07/23 03:44:55;;;;;;;33.27;19.10;;;;;;;;;;7666816;23;20017;-61
2022/07/23 03:47:55;;;;;;;26.53;17.67;;;;;;;;;;7663690;23;20819;-61
2022/07/23 03:50:56;;;;;;;28.37;17.97;;;;;;;;;;7667591;23;20086;-60
2022/07/23 03:53:56;;;;;;;27.50;17.80;;;;;;;;;;7665594;23;20025;-60
2022/07/23 03:56:57;;;;;;;26.37;17.30;;;;;;;;;;7639116;23;20035;-61
2022/07/23 03:59:57;;;;;;;24.97;18.03;;;;;;;;;;7667083;23;20017;-61
2022/07/23 04:02:58;;;;;;;25.30;17.53;;;;;;;;;;7663697;23;20017;-61
2022/07/23 04:05:58;;;;;;;24.43;17.63;;;;;;;;;;7667859;23;20021;-61
2022/07/23 04:08:59;;;;;;;29.33;18.17;;;;;;;;;;7669218;23;20017;-61
2022/07/23 04:12:01;;;;;;;30.03;19.20;;;;;;;;;;7668813;23;20721;-60
2022/07/23 04:15:01;;;;;;;29.25;18.90;;;;;;;;;;7665364;23;20461;-62
2022/07/23 04:18:02;;;;;;;33.23;20.80;;;;;;;;;;7667146;23;20121;-60
2022/07/23 04:21:02;;;;;;;31.90;21.63;;;;;;;;;;7666272;23;20029;-61
2022/07/23 04:24:03;;;;;;;38.33;22.40;;;;;;;;;;7664532;23;20511;-60
2022/07/23 04:27:05;;;;;;;32.83;22.30;;;;;;;;;;7669412;23;20683;-61
2022/07/23 04:30:06;;;;;;;;;;;;;;;;;;7669464;23;20020;-61
2022/07/23 04:33:07;;;;;;;34.03;22.15;;;;;;;;;;7670199;23;20042;-62
2022/07/23 04:36:07;;;;;;;39.13;23.33;;;;;;;;;;7666401;23;20334;-62
2022/07/23 04:39:08;;;;;;;36.97;23.03;;;;;;;;;;7667134;23;20020;-62
2022/07/23 04:42:08;;;;;;;37.80;22.87;;;;;;;;;;7669803;23;20023;-62
2022/07/23 04:45:09;;;;;;;36.60;23.57;;;;;;;;;;7668653;23;20044;-62
2022/07/23 04:48:10;;;;;;;40.42;25.02;;;;;;;;;;7667902;23;20688;-61
2022/07/23 04:51:10;;;;;;;44.93;25.43;;;;;;;;;;7666730;23;20035;-61
2022/07/23 04:54:11;;;;;;;43.90;28.47;;;;;;;;;;7668516;23;20476;-60
2022/07/23 04:57:11;;;;;;;47.87;30.20;;;;;;;;;;7668212;23;20021;-63
2022/07/23 05:00:12;;;;;;;46.77;29.93;;;;;;;;;;7668940;23;20116;-62
2022/07/23 05:03:13;;;;;;;49.55;31.48;;;;;;;;;;7670960;23;20104;-62
2022/07/23 05:06:14;;;;;;;52.17;33.03;;;;;;;;;;7670853;23;20021;-61
2022/07/23 05:09:15;;;;;;;52.55;34.85;;;;;;;;;;7670836;23;20096;-61
2022/07/23 05:12:16;;;;;;;50.60;34.57;;;;;;;;;;7672311;23;20047;-61
2022/07/23 05:15:16;;;;;;;53.00;33.20;;;;;;;;;;7670253;23;20338;-61
2022/07/23 05:18:17;;;;;;;51.97;32.13;;;;;;;;;;7670731;23;20506;-61
2022/07/23 05:21:17;;;;;;;45.67;30.30;;;;;;;;;;7671005;23;20120;-61
2022/07/23 05:24:18;;;;;;;46.60;29.83;;;;;;;;;;7671441;23;20013;-60
2022/07/23 05:27:18;;;;;;;43.40;29.77;;;;;;;;;;7667837;23;20024;-61
2022/07/23 05:30:19;;;;;;;49.73;30.43;;;;;;;;;;7671377;23;20035;-61
2022/07/23 05:33:20;;;;;;;48.50;29.47;;;;;;;;;;7672495;23;20013;-60
2022/07/23 05:36:21;;;;;;;48.03;29.88;;;;;;;;;;7668804;23;20329;-61
2022/07/23 05:39:21;;;;;;;50.20;31.83;;;;;;;;;;7668381;23;20013;-60
2022/07/23 05:42:22;;;;;;;47.63;31.50;;;;;;;;;;7669886;23;20124;-61
2022/07/23 05:45:22;;;;;;;49.27;30.33;;;;;;;;;;7671297;23;20045;-62
2022/07/23 05:48:23;;;;;;;45.77;29.17;;;;;;;;;;7669097;23;20096;-61
2022/07/23 05:51:24;;;;;;;39.53;26.30;;;;;;;;;;7669278;23;20033;-61
2022/07/23 05:54:25;;;;;;;40.80;28.90;;;;;;;;;;7669690;23;20037;-60
2022/07/23 05:57:25;;;;;;;46.47;29.97;;;;;;;;;;7669310;23;20048;-61
2022/07/23 06:00:27;;;;;;;44.93;29.47;;;;;;;;;;7671036;23;20348;-61
2022/07/23 06:03:27;;;;;;;41.20;28.42;;;;;;;;;;7670952;23;20096;-61
2022/07/23 06:06:28;;;;;;;41.03;26.57;;;;;;;;;;7669180;23;20028;-61
2022/07/23 06:09:29;;;;;;;44.17;29.02;;;;;;;;;;7670453;23;20421;-61
2022/07/23 06:12:29;;;;;;;42.13;28.00;;;;;;;;;;7670337;23;20031;-60
2022/07/23 06:15:30;;;;;;;42.58;28.58;;;;;;;;;;7671253;23;20013;-61
2022/07/23 06:18:31;;;;;;;42.53;28.43;;;;;;;;;;7642660;23;20023;-61
2022/07/23 06:21:31;;;;;;;40.75;26.90;;;;;;;;;;7666942;23;20516;-61
2022/07/23 06:24:32;;;;;;;38.07;26.47;;;;;;;;;;7671973;23;20040;-61
2022/07/23 06:27:32;;;;;;;38.40;26.40;;;;;;;;;;7670443;23;20036;-63
2022/07/23 06:30:33;;;;;;;41.90;27.10;;;;;;;;;;7680661;23;20021;-61
2022/07/23 06:33:33;;;;;;;38.27;25.53;;;;;;;;;;7670460;23;20017;-61
2022/07/23 06:36:34;;;;;;;36.57;24.93;;;;;;;;;;7669966;23;20079;-60
2022/07/23 06:39:35;;;;;;;34.97;24.90;;;;;;;;;;7670577;23;20421;-61
2022/07/23 06:42:39;;;;;;;39.00;25.13;;;;;;;;;;7672246;23;20119;-60
2022/07/23 06:45:39;;;;;;;39.25;25.45;;;;;;;;;;7671694;23;20497;-60
2022/07/23 06:48:40;;;;;;;39.83;26.10;;;;;;;;;;7671848;23;20054;-61
2022/07/23 06:51:40;;;;;;;40.00;27.70;;;;;;;;;;7672310;23;20052;-61
2022/07/23 06:54:41;;;;;;;39.00;29.27;;;;;;;;;;7674005;23;20101;-61
2022/07/23 06:57:42;;;;;;;37.78;27.13;;;;;;;;;;7672747;23;20346;-61
2022/07/23 07:00:42;;;;;;;39.13;25.27;;;;;;;;;;7672759;23;20036;-62
2022/07/23 07:03:43;;;;;;;35.63;26.73;;;;;;;;;;7673947;23;20041;-62
2022/07/23 07:06:43;;;;;;;42.10;28.27;;;;;;;;;;7678875;23;20092;-62
2022/07/23 07:09:44;;;;;;;37.57;27.97;;;;;;;;;;7672882;23;20078;-61
2022/07/23 07:12:45;;;;;;;37.88;25.73;;;;;;;;;;7673053;23;20115;-61
2022/07/23 07:15:45;;;;;;;42.37;28.43;;;;;;;;;;7673178;23;20090;-66
2022/07/23 07:18:46;;;;;;;36.47;25.10;;;;;;;;;;7673239;23;20793;-61
2022/07/23 07:21:47;;;;;;;35.35;25.08;;;;;;;;;;7673453;23;20076;-61
2022/07/23 07:24:47;;;;;;;38.10;25.60;;;;;;;;;;7673971;23;20099;-62
2022/07/23 07:27:48;;;;;;;39.50;26.80;;;;;;;;;;7672615;23;20480;-62
2022/07/23 07:30:48;;;;;;;30.50;21.80;;;;;;;;;;7671927;23;20266;-61
2022/07/23 07:33:49;;;;;;;35.13;25.70;;;;;;;;;;7673212;23;20076;-61
2022/07/23 07:36:49;;;;;;;32.20;24.40;;;;;;;;;;7670962;23;20840;-63
2022/07/23 07:39:50;;;;;;;31.13;22.93;;;;;;;;;;7670897;23;20021;-61
2022/07/23 07:42:52;;;;;;;31.90;24.17;;;;;;;;;;7672555;23;20357;-61
2022/07/23 07:45:53;;;;;;;32.55;23.70;;;;;;;;;;7670246;23;20102;-61
2022/07/23 07:48:54;;;;;;;33.03;23.57;;;;;;;;;;7671896;23;20029;-60
2022/07/23 07:51:54;;;;;;;27.23;21.35;;;;;;;;;;7670432;23;20104;-60
2022/07/23 07:54:55;;;;;;;27.93;22.27;;;;;;;;;;7671686;23;20384;-60
2022/07/23 07:57:55;;;;;;;29.27;21.53;;;;;;;;;;7670080;23;20327;-60
2022/07/23 08:00:56;;;;;;;31.73;21.13;;;;;;;;;;7671264;23;20389;-60
2022/07/23 08:03:56;;;;;;;28.90;19.87;;;;;;;;;;7672955;23;20071;-59
2022/07/23 08:06:57;;;;;;;24.40;19.97;;;;;;;;;;7669387;23;20378;-59
2022/07/23 08:09:57;;;;;;;24.47;19.87;;;;;;;;;;7669767;23;20017;-60
2022/07/23 08:13:00;;;;;;;29.07;21.27;;;;;;;;;;7671283;23;20020;-59
2022/07/23 08:16:01;;;;;;;25.50;19.92;;;;;;;;;;7671117;23;20092;-60
2022/07/23 08:19:01;;;;;;;27.10;20.27;;;;;;;;;;7669069;23;20023;-61
2022/07/23 08:22:02;;;;;;;23.90;19.20;;;;;;;;;;7670009;23;20721;-61
2022/07/23 08:25:02;;;;;;;23.77;17.97;;;;;;;;;;7672236;23;20314;-61
2022/07/23 08:28:06;;;;;;;25.13;17.60;;;;;;;;;;7672001;23;20020;-61
2022/07/23 08:31:06;;;;;;;21.65;17.45;;;;;;;;;;7672300;23;20094;-59
2022/07/23 08:34:07;;;;;;;23.42;17.95;;;;;;;;;;7670385;23;20455;-58
2022/07/23 08:37:07;;;;;;;22.87;16.87;;;;;;;;;;7671273;23;20088;-60
2022/07/23 08:40:09;;;;;;;23.58;16.77;;;;;;;;;;7672476;23;20017;-60
2022/07/23 08:43:30;;;;;;;;;;;;;;;;;;7671430;23;20096;-60
2022/07/23 08:46:31;;;;;;;23.17;15.43;;;;;;;;;;7669202;23;20438;-60
2022/07/23 08:49:32;;;;;;;19.73;15.15;;;;;;;;;;7670791;23;20025;-60
2022/07/23 08:52:33;;;;;;;20.33;15.88;;;;;;;;;;7670274;23;20108;-61
2022/07/23 08:55:34;;;;;;;20.48;16.00;;;;;;;;;;7671967;23;20028;-60
2022/07/23 08:58:34;;;;;;;;;;;;;;;;;;7671575;23;20161;-60
2022/07/23 09:01:35;;;;;;;23.73;14.60;;;;;;;;;;7669126;23;19920;-60
2022/07/23 09:04:36;;;;;;;20.40;16.48;;;;;;;;;;7671210;23;20013;-61
2022/07/23 09:07:37;;;;;;;23.35;15.57;;;;;;;;;;7671057;23;20122;-60
2022/07/23 09:10:47;;;;;;;21.85;15.57;;;;;;;;;;7671229;23;20100;-60
2022/07/23 09:13:54;;;;;;;16.92;14.43;;;;;;;;;;7672214;23;20024;-61
2022/07/23 09:16:54;;;;;;;19.40;14.70;;;;;;;;;;7671722;23;20302;-59
2022/07/23 09:20:07;;;;;;;14.67;12.30;;;;;;;;;;7670245;23;20396;-59
2022/07/23 09:23:08;;;;;;;18.00;12.93;;;;;;;;;;7670379;23;20524;-59
2022/07/23 09:26:29;;;;;;;14.37;11.10;;;;;;;;;;7671641;23;20019;-60
2022/07/23 09:29:30;;;;;;;15.45;12.27;;;;;;;;;;7670779;23;20063;-66
2022/07/23 09:32:30;;;;;;;13.80;11.30;;;;;;;;;;7670246;23;20143;-60
2022/07/23 09:35:51;;;;;;;;;;;;;;;;;;7670808;23;20017;-59
2022/07/23 09:38:52;;;;;;;12.73;11.00;;;;;;;;;;7671386;23;19923;-59
2022/07/23 09:41:53;;;;;;;13.38;11.15;;;;;;;;;;7670900;23;20017;-60
2022/07/23 09:44:56;;;;;;;15.52;12.32;;;;;;;;;;7670784;23;20014;-59
2022/07/23 09:48:14;;;;;;;14.15;11.02;;;;;;;;;;7670065;23;20104;-59
2022/07/23 09:51:18;;;;;;;15.68;12.27;;;;;;;;;;7669615;23;20476;-60
2022/07/23 09:54:39;;;;;;;17.92;12.70;;;;;;;;;;7671962;23;20533;-60
2022/07/23 09:57:41;;;;;;;14.82;11.90;;;;;;;;;;7671084;23;20062;-59
2022/07/23 10:00:42;;;;;;;13.48;11.68;;;;;;;;;;7671305;23;20096;-59
2022/07/23 10:03:43;;;;;;;;;;;;;;;;;;7670844;23;20580;-60
2022/07/23 10:06:45;;;;;;;15.70;12.63;;;;;;;;;;7671206;23;19924;-59
2022/07/23 10:09:47;;;;;;;17.15;12.80;;;;;;;;;;7671236;23;20021;-61
2022/07/23 10:15:51;;;;;;;15.38;11.82;;;;;;;;;;7670322;23;20021;-59
2022/07/23 10:18:52;;;;;;;;;;;;;;;;;;7672177;23;20349;-59
2022/07/23 10:21:58;;;;;;;15.27;11.90;;;;;;;;;;7669668;23;19991;-61
2022/07/23 10:25:09;;;;;;;14.80;12.57;;;;;;;;;;7669210;23;20547;-60
2022/07/23 10:28:15;;;;;;;13.48;11.77;;;;;;;;;;7672144;23;20459;-60
2022/07/23 10:31:33;;;;;;;16.42;12.60;;;;;;;;;;7667039;23;20049;-59
2022/07/23 10:34:51;;;;;;;15.15;12.73;;;;;;;;;;7672450;23;20024;-60
2022/07/23 10:37:58;;;;;;;16.67;12.50;;;;;;;;;;7672423;23;20099;-59
2022/07/23 10:41:00;;;;;;;15.80;12.85;;;;;;;;;;7683682;23;20892;-60
2022/07/23 10:44:11;;;;;;;14.35;11.88;;;;;;;;;;7673144;23;20099;-56
2022/07/23 10:50:30;;;;;;;15.35;11.95;;;;;;;;;;7671969;23;20100;-59
2022/07/23 10:53:50;;;;;;;13.32;11.93;;;;;;;;;;7672676;23;20043;-61
2022/07/23 10:56:54;;;;;;;18.75;11.80;;;;;;;;;;7673025;23;20100;-59
2022/07/23 11:00:13;;;;;;;15.27;11.20;;;;;;;;;;7671869;23;20353;-60
2022/07/23 11:03:36;;;;;;;14.70;11.63;;;;;;;;;;7673621;23;20579;-60
2022/07/23 11:06:49;;;;;;;14.40;11.45;;;;;;;;;;7670253;23;20578;-60
2022/07/23 11:09:49;;;;;;;12.50;11.20;;;;;;;;;;7672685;23;20473;-58
2022/07/23 11:12:50;;;;;;;;;;;;;;;;;;7670518;23;20024;-60
2022/07/23 11:16:02;;;;;;;14.83;11.00;;;;;;;;;;7671769;23;20067;-59
2022/07/23 11:19:05;;;;;;;16.35;11.30;;;;;;;;;;7671586;23;20352;-60
2022/07/23 11:22:05;;;;;;;14.43;11.77;;;;;;;;;;7671337;23;20101;-60
2022/07/23 11:25:06;;;;;;;;;;;;;;;;;;7671628;23;20016;-59
2022/07/23 11:28:20;;;;;;;14.05;11.32;;;;;;;;;;7672416;23;19999;-59
2022/07/23 11:31:22;;;;;;;14.38;11.60;;;;;;;;;;7673095;23;20024;-59
2022/07/23 11:34:38;;;;;;;13.30;11.05;;;;;;;;;;7672957;23;20080;-59
2022/07/23 11:37:40;;;;;;;11.98;10.63;;;;;;;;;;7671261;23;20017;-60
2022/07/23 11:40:43;;;;;;;12.82;10.98;;;;;;;;;;7671733;23;20333;-60
2022/07/23 11:43:44;;;;;;;14.38;11.15;;;;;;;;;;7671081;23;20341;-60
2022/07/23 11:47:02;;;;;;;14.20;10.48;;;;;;;;;;7670880;23;20111;-59
2022/07/23 11:50:06;;;;;;;13.32;11.02;;;;;;;;;;7671725;23;20394;-60
2022/07/23 11:53:07;;;;;;;13.50;11.13;;;;;;;;;;7671821;23;20096;-59
2022/07/23 11:56:10;;;;;;;12.57;10.65;;;;;;;;;;7673139;23;20020;-60
2022/07/23 11:59:11;;;;;;;14.25;10.10;;;;;;;;;;7672090;23;20109;-60
2022/07/23 12:02:11;;;;;;;13.18;11.02;;;;;;;;;;7671600;23;20017;-59
2022/07/23 12:05:14;;;;;;;12.32;10.70;;;;;;;;;;7672938;23;20040;-59
2022/07/23 12:08:15;;;;;;;12.40;11.10;;;;;;;;;;7672842;23;20033;-59
2022/07/23 12:11:15;;;;;;;13.20;10.65;;;;;;;;;;7671709;23;20036;-60
2022/07/23 12:14:16;;;;;;;11.77;10.07;;;;;;;;;;7672036;23;20104;-60
2022/07/23 12:17:16;;;;;;;;;;;;;;;;;;7672718;23;20034;-60
2022/07/23 12:20:23;;;;;;;12.30;10.20;;;;;;;;;;7671405;23;20588;-60
2022/07/23 12:23:25;;;;;;;12.02;10.45;;;;;;;;;;7671257;23;20105;-59
2022/07/23 12:26:26;;;;;;;13.43;10.73;;;;;;;;;;7671080;23;20021;-60
2022/07/23 12:29:35;;;;;;;13.05;10.98;;;;;;;;;;7671294;23;20087;-60
2022/07/23 12:32:43;;;;;;;14.00;11.55;;;;;;;;;;7665265;23;20024;-59
2022/07/23 12:35:46;;;;;;;14.38;10.30;;;;;;;;;;7656938;23;20115;-59
2022/07/23 12:38:51;;;;;;;12.77;10.45;;;;;;;;;;7660556;23;20032;-59
2022/07/23 12:41:53;;;;;;;15.80;10.95;;;;;;;;;;7660356;23;20021;-59
2022/07/23 12:45:08;;;;;;;11.57;10.43;;;;;;;;;;7658224;23;20447;-59
2022/07/23 12:48:16;;;;;;;13.40;10.52;;;;;;;;;;7661294;23;20021;-59
2022/07/23 12:51:32;;;;;;;13.77;10.90;;;;;;;;;;7661082;23;20028;-59
2022/07/23 12:54:33;;;;;;;12.23;10.57;;;;;;;;;;7658583;23;20031;-59
2022/07/23 12:57:46;;;;;;;;;;;;;;;;;;7661507;23;20803;-58
2022/07/23 13:00:51;;;;;;;13.98;10.70;;;;;;;;;;7660280;23;19920;-58
2022/07/23 13:04:06;;;;;;;11.73;10.52;;;;;;;;;;7656276;23;20013;-59
2022/07/23 13:07:07;;;;;;;12.93;10.52;;;;;;;;;;7659785;23;20052;-59
2022/07/23 13:10:07;;;;;;;;;;;;;;;;;;7659568;23;20776;-59
2022/07/23 13:13:10;;;;;;;14.40;11.00;;;;;;;;;;7656032;23;20031;-59
2022/07/23 13:16:10;;;;;;;14.95;11.23;;;;;;;;;;7658692;23;20139;-58
2022/07/23 13:19:11;;;;;;;;;;;;;;;;;;7662296;23;20103;-59
2022/07/23 13:22:12;;;;;;;13.60;10.70;;;;;;;;;;7658809;23;19920;-59
2022/07/23 13:25:12;;;;;;;;;;;;;;;;;;7659899;23;20091;-58
2022/07/23 13:28:14;;;;;;;13.80;10.70;;;;;;;;;;7660706;23;19950;-58
2022/07/23 13:31:15;;;;;;;12.48;11.02;;;;;;;;;;7661564;23;20111;-59
2022/07/23 13:34:15;;;;;;;;;;;;;;;;;;7658829;23;20017;-59
2022/07/23 13:37:16;;;;;;;14.13;11.10;;;;;;;;;;7660914;23;20047;-59
2022/07/23 13:40:16;;;;;;;;;;;;;;;;;;7635169;23;20423;-59
2022/07/23 13:43:20;;;;;;;16.20;12.10;;;;;;;;;;7657491;23;20655;-58
2022/07/23 13:46:20;;;;;;;14.80;11.50;;;;;;;;;;7660240;23;20318;-59
2022/07/23 13:49:21;;;;;;;13.52;11.30;;;;;;;;;;7633896;23;20013;-59
2022/07/23 13:52:21;;;;;;;14.47;11.57;;;;;;;;;;7662065;23;20056;-58
2022/07/23 13:55:22;;;;;;;13.98;11.95;;;;;;;;;;7659987;23;20262;-58
2022/07/23 13:58:23;;;;;;;;;;;;;;;;;;7661802;23;20017;-60
2022/07/23 14:01:24;;;;;;;14.90;12.53;;;;;;;;;;7661347;23;19971;-59
2022/07/23 14:04:24;;;;;;;19.67;12.40;;;;;;;;;;7660119;23;20092;-59
2022/07/23 14:07:25;;;;;;;17.00;12.70;;;;;;;;;;7661276;23;20041;-59
2022/07/23 14:10:25;;;;;;;17.83;13.30;;;;;;;;;;7661850;23;20021;-59
2022/07/23 14:13:26;;;;;;;22.23;14.00;;;;;;;;;;7659342;23;20380;-60
2022/07/23 14:16:26;;;;;;;21.75;14.18;;;;;;;;;;7661852;23;20080;-60
2022/07/23 14:19:28;;;;;;;22.40;15.05;;;;;;;;;;7663389;23;20037;-59
2022/07/23 14:22:28;;;;;;;;;;;;;;;;;;7658995;23;20083;-60
2022/07/23 14:25:29;;;;;;;20.10;14.00;;;;;;;;;;7661549;23;19990;-59
2022/07/23 14:28:32;;;;;;;23.75;15.40;;;;;;;;;;7661614;23;20092;-60
2022/07/23 14:31:33;;;;;;;21.02;15.15;;;;;;;;;;7661294;23;20025;-60
2022/07/23 14:34:35;;;;;;;20.43;15.27;;;;;;;;;;7658750;23;20021;-59
2022/07/23 14:37:35;;;;;;;20.60;14.80;;;;;;;;;;7661790;23;20374;-60
2022/07/23 14:40:36;;;;;;;28.40;15.40;;;;;;;;;;7663570;23;20025;-59
2022/07/23 14:43:37;;;;;;;19.85;13.90;;;;;;;;;;7654616;23;20756;-60
2022/07/23 14:46:37;;;;;;;20.05;12.93;;;;;;;;;;7636125;23;20017;-59
2022/07/23 14:49:38;;;;;;;25.30;13.32;;;;;;;;;;7663781;23;20051;-59
2022/07/23 14:52:39;;;;;;;15.67;12.83;;;;;;;;;;7660683;23;20024;-59
2022/07/23 14:55:39;;;;;;;17.15;12.65;;;;;;;;;;7662967;23;20027;-59
2022/07/23 14:58:41;;;;;;;18.73;12.80;;;;;;;;;;7663004;23;21201;-59
2022/07/23 15:01:42;;;;;;;22.23;13.13;;;;;;;;;;7662694;23;20441;-59
2022/07/23 15:04:43;;;;;;;18.83;12.70;;;;;;;;;;7660210;23;20028;-59
2022/07/23 15:07:44;;;;;;;23.33;13.50;;;;;;;;;;7636377;23;20032;-59
2022/07/23 15:10:44;;;;;;;22.13;13.80;;;;;;;;;;7662508;23;20142;-59
2022/07/23 15:13:45;;;;;;;20.80;13.18;;;;;;;;;;7673012;23;20021;-59
2022/07/23 15:16:46;;;;;;;23.00;14.35;;;;;;;;;;7662983;23;20025;-60
2022/07/23 15:19:47;;;;;;;19.48;13.23;;;;;;;;;;7663503;23;20021;-58
2022/07/23 15:22:47;;;;;;;17.63;12.83;;;;;;;;;;7660584;23;20028;-59
2022/07/23 15:25:48;;;;;;;19.25;12.85;;;;;;;;;;7662627;23;20342;-59
2022/07/23 15:28:49;;;;;;;21.10;13.65;;;;;;;;;;7636154;23;20047;-59
2022/07/23 15:31:50;;;;;;;17.02;12.95;;;;;;;;;;7662298;23;20349;-59
2022/07/23 15:34:51;;;;;;;17.90;12.75;;;;;;;;;;7634011;23;20527;-59
2022/07/23 15:37:52;;;;;;;22.42;12.73;;;;;;;;;;7635024;23;20035;-59
2022/07/23 15:40:56;;;;;;;19.97;12.63;;;;;;;;;;7662263;23;20099;-59
2022/07/23 15:43:57;;;;;;;18.65;12.52;;;;;;;;;;7659104;23;20095;-58
2022/07/23 15:46:58;;;;;;;22.48;12.95;;;;;;;;;;7662541;23;20014;-58
2022/07/23 15:49:59;;;;;;;20.77;14.70;;;;;;;;;;7662666;23;20511;-59
2022/07/23 15:52:59;;;;;;;18.03;13.00;;;;;;;;;;7660381;23;20021;-59
2022/07/23 15:56:01;;;;;;;19.63;13.13;;;;;;;;;;7661325;23;20124;-59
2022/07/23 15:59:02;;;;;;;17.92;13.27;;;;;;;;;;7660171;23;20141;-57
2022/07/23 16:02:03;;;;;;;;;;;;;;;;;;7661763;23;20017;-58
2022/07/23 16:08:23;;;;;;;18.65;13.43;;;;;;;;;;7662823;23;20100;-59
2022/07/23 16:11:24;;;;;;;17.23;12.90;;;;;;;;;;7661862;23;20021;-60
2022/07/23 16:14:24;;;;;;;16.90;13.53;;;;;;;;;;7659206;23;20468;-63
2022/07/23 16:17:25;;;;;;;20.77;14.10;;;;;;;;;;7659822;23;20092;-58
2022/07/23 16:20:25;;;;;;;19.23;14.13;;;;;;;;;;7660974;23;20017;-59
2022/07/23 16:23:26;;;;;;;17.67;13.37;;;;;;;;;;7659573;23;20027;-59
2022/07/23 16:26:27;;;;;;;21.92;14.60;;;;;;;;;;7659204;23;21086;-60
2022/07/23 16:29:27;;;;;;;20.00;14.47;;;;;;;;;;7661195;23;20025;-59
2022/07/23 16:32:28;;;;;;;24.90;14.07;;;;;;;;;;7658965;23;20298;-59
2022/07/23 16:35:28;;;;;;;19.70;14.63;;;;;;;;;;7660789;23;20017;-58
2022/07/23 16:38:29;;;;;;;21.83;14.80;;;;;;;;;;7660835;23;20031;-59
2022/07/23 16:41:30;;;;;;;18.65;14.15;;;;;;;;;;7661618;23;20025;-59
2022/07/23 16:44:30;;;;;;;19.10;14.60;;;;;;;;;;7658211;23;20028;-59
2022/07/23 16:47:31;;;;;;;21.30;14.30;;;;;;;;;;7660956;23;20021;-58
2022/07/23 16:50:32;;;;;;;28.17;19.70;;;;;;;;;;7661953;23;20025;-58
2022/07/23 16:53:33;;;;;;;24.23;15.60;;;;;;;;;;7659227;23;20420;-58
2022/07/23 16:56:34;;;;;;;;;;;;;;;;;;7662465;23;20092;-58
2022/07/23 16:59:35;;;;;;;20.83;14.60;;;;;;;;;;7661687;23;19930;-59
2022/07/23 17:02:37;;;;;;;21.47;15.37;;;;;;;;;;7658057;23;20510;-59
2022/07/23 17:05:37;;;;;;;29.73;16.10;;;;;;;;;;7655636;23;20254;-59
2022/07/23 17:08:38;;;;;;;22.07;14.23;;;;;;;;;;7654681;23;20457;-59
2022/07/23 17:11:38;;;;;;;19.67;14.73;;;;;;;;;;7656168;23;20035;-58
2022/07/23 17:14:39;;;;;;;19.93;14.87;;;;;;;;;;7653952;23;20020;-59
2022/07/23 17:17:40;;;;;;;22.30;15.67;;;;;;;;;;7657873;23;20120;-59
2022/07/23 17:20:41;;;;;;;21.20;15.77;;;;;;;;;;7655464;23;20075;-59
2022/07/23 17:23:41;;;;;;;19.33;15.48;;;;;;;;;;7652858;23;20029;-59
2022/07/23 17:26:42;;;;;;;21.75;16.00;;;;;;;;;;7655142;23;20044;-59
2022/07/23 17:29:43;;;;;;;26.55;20.35;;;;;;;;;;7655801;23;20024;-59
2022/07/23 17:32:44;;;;;;;20.92;17.05;;;;;;;;;;7652227;23;20095;-59
2022/07/23 17:35:45;;;;;;;26.35;17.98;;;;;;;;;;7653601;23;20052;-59
2022/07/23 17:38:46;;;;;;;24.40;17.07;;;;;;;;;;7655913;23;20021;-59
2022/07/23 17:41:47;;;;;;;21.63;15.75;;;;;;;;;;7654667;23;20488;-58
2022/07/23 17:44:48;;;;;;;20.45;15.88;;;;;;;;;;7653553;23;20067;-59
2022/07/23 17:47:48;;;;;;;20.73;15.60;;;;;;;;;;7655113;23;20021;-59
2022/07/23 17:50:49;;;;;;;22.20;16.60;;;;;;;;;;7655700;23;20104;-59
2022/07/23 17:53:49;;;;;;;27.37;18.50;;;;;;;;;;7653855;23;20032;-59
2022/07/23 17:56:50;;;;;;;23.57;16.90;;;;;;;;;;7654322;23;20739;-59